sensor_id;sensor_type;location;lat;lon;timestamp;pressure;altitude;pressure_sealevel;temperature;humidity
51229;BME280;37304;52.216;6.874;2023-04-08T00:02:03;101908.75;;;4.63;100.00
51229;BME280;37304;52.216;6.874;2023-04-08T00:07:04;101911.19;;;4.59;100.00
51229;BME280;37304;52.216;6.874;2023-04-08T00:12:05;101918.75;;;4.51;100.00
51229;BME280;37304;52.216;6.874;2023-04-08T00:17:05;101924.56;;;4.44;100.00
51229;BME280;37304;52.216;6.874;2023-04-08T00:22:07;101921.00;;;4.39;100.00
51229;BME280;37304;52.216;6.874;2023-04-08T00:27:08;101924.31;;;4.34;100.00
51229;BME280;37304;52.216;6.874;2023-04-08T00:32:08;101928.44;;;4.29;100.00
51229;BME280;37304;52.216;6.874;2023-04-08T00:37:09;101934.34;;;4.25;100.00
51229;BME280;37304;52.216;6.874;2023-04-08T00:42:09;101940.16;;;4.18;100.00
51229;BME280;37304;52.216;6.874;2023-04-08T00:47:13;101938.47;;;4.18;100.00
51229;BME280;37304;52.216;6.874;2023-04-08T00:52:15;101939.91;;;4.08;100.00
51229;BME280;37304;52.216;6.874;2023-04-08T00:57:16;101937.91;;;3.98;100.00
51229;BME280;37304;52.216;6.874;2023-04-08T01:07:33;101944.66;;;3.94;100.00
51229;BME280;37304;52.216;6.874;2023-04-08T01:12:39;101945.44;;;3.92;100.00
51229;BME280;37304;52.216;6.874;2023-04-08T01:17:42;101943.53;;;3.85;100.00
51229;BME280;37304;52.216;6.874;2023-04-08T01:28:06;101952.75;;;3.78;100.00
51229;BME280;37304;52.216;6.874;2023-04-08T01:33:11;101951.81;;;3.74;100.00
51229;BME280;37304;52.216;6.874;2023-04-08T01:38:19;101957.72;;;3.72;100.00
51229;BME280;37304;52.216;6.874;2023-04-08T01:43:20;101960.16;;;3.67;100.00
51229;BME280;37304;52.216;6.874;2023-04-08T01:48:21;101952.31;;;3.62;100.00
51229;BME280;37304;52.216;6.874;2023-04-08T01:53:22;101965.00;;;3.58;100.00
51229;BME280;37304;52.216;6.874;2023-04-08T01:58:23;101963.16;;;3.54;100.00
51229;BME280;37304;52.216;6.874;2023-04-08T02:03:26;101967.19;;;3.45;100.00
51229;BME280;37304;52.216;6.874;2023-04-08T02:08:29;101966.97;;;3.38;100.00
51229;BME280;37304;52.216;6.874;2023-04-08T02:13:30;101974.53;;;3.33;100.00
51229;BME280;37304;52.216;6.874;2023-04-08T02:18:31;101971.78;;;3.27;100.00
51229;BME280;37304;52.216;6.874;2023-04-08T02:23:34;101968.13;;;3.20;100.00
51229;BME280;37304;52.216;6.874;2023-04-08T02:28:38;101980.84;;;3.15;100.00
51229;BME280;37304;52.216;6.874;2023-04-08T02:33:39;101976.94;;;3.01;100.00
51229;BME280;37304;52.216;6.874;2023-04-08T02:38:40;101975.59;;;2.86;100.00
51229;BME280;37304;52.216;6.874;2023-04-08T02:43:41;101987.50;;;2.84;100.00
51229;BME280;37304;52.216;6.874;2023-04-08T02:48:41;101996.44;;;2.70;100.00
51229;BME280;37304;52.216;6.874;2023-04-08T02:53:42;102000.34;;;2.58;100.00
51229;BME280;37304;52.216;6.874;2023-04-08T02:58:42;102008.31;;;2.66;100.00
51229;BME280;37304;52.216;6.874;2023-04-08T03:03:43;102007.63;;;2.72;100.00
51229;BME280;37304;52.216;6.874;2023-04-08T03:08:43;102006.06;;;2.75;100.00
51229;BME280;37304;52.216;6.874;2023-04-08T03:13:43;102005.06;;;2.72;100.00
51229;BME280;37304;52.216;6.874;2023-04-08T03:18:45;102005.06;;;2.72;100.00
51229;BME280;37304;52.216;6.874;2023-04-08T03:23:46;102011.84;;;2.70;100.00
51229;BME280;37304;52.216;6.874;2023-04-08T03:28:47;102008.25;;;2.65;100.00
51229;BME280;37304;52.216;6.874;2023-04-08T03:33:47;102010.63;;;2.60;100.00
51229;BME280;37304;52.216;6.874;2023-04-08T03:38:47;102011.75;;;2.42;100.00
51229;BME280;37304;52.216;6.874;2023-04-08T03:43:48;102013.69;;;2.50;100.00
51229;BME280;37304;52.216;6.874;2023-04-08T03:48:48;102013.56;;;2.45;100.00
51229;BME280;37304;52.216;6.874;2023-04-08T03:53:48;102018.00;;;2.51;100.00
51229;BME280;37304;52.216;6.874;2023-04-08T03:58:49;102023.84;;;2.46;100.00
51229;BME280;37304;52.216;6.874;2023-04-08T04:03:49;102022.06;;;2.44;100.00
51229;BME280;37304;52.216;6.874;2023-04-08T04:08:52;102023.03;;;2.47;100.00
51229;BME280;37304;52.216;6.874;2023-04-08T04:13:53;102028.16;;;2.47;100.00
51229;BME280;37304;52.216;6.874;2023-04-08T04:18:53;102027.13;;;2.42;100.00
51229;BME280;37304;52.216;6.874;2023-04-08T04:23:54;102032.69;;;2.55;100.00
51229;BME280;37304;52.216;6.874;2023-04-08T04:28:54;102037.59;;;2.71;100.00
51229;BME280;37304;52.216;6.874;2023-04-08T04:33:55;102040.56;;;2.84;100.00
51229;BME280;37304;52.216;6.874;2023-04-08T04:38:55;102050.34;;;2.94;100.00
51229;BME280;37304;52.216;6.874;2023-04-08T04:43:56;102063.59;;;3.06;100.00
51229;BME280;37304;52.216;6.874;2023-04-08T04:48:56;102061.28;;;3.14;100.00
51229;BME280;37304;52.216;6.874;2023-04-08T04:53:56;102065.81;;;3.22;100.00
51229;BME280;37304;52.216;6.874;2023-04-08T04:58:57;102062.66;;;3.30;100.00
51229;BME280;37304;52.216;6.874;2023-04-08T05:03:58;102065.59;;;3.41;100.00
51229;BME280;37304;52.216;6.874;2023-04-08T05:08:58;102074.31;;;3.46;100.00
51229;BME280;37304;52.216;6.874;2023-04-08T05:13:58;102076.25;;;3.54;100.00
51229;BME280;37304;52.216;6.874;2023-04-08T05:18:59;102073.97;;;3.63;100.00
51229;BME280;37304;52.216;6.874;2023-04-08T05:24:00;102082.66;;;3.65;100.00
51229;BME280;37304;52.216;6.874;2023-04-08T05:29:00;102082.16;;;3.77;100.00
51229;BME280;37304;52.216;6.874;2023-04-08T05:34:01;102086.63;;;3.83;100.00
51229;BME280;37304;52.216;6.874;2023-04-08T05:39:01;102095.44;;;3.91;100.00
51229;BME280;37304;52.216;6.874;2023-04-08T05:44:02;102106.81;;;3.98;100.00
51229;BME280;37304;52.216;6.874;2023-04-08T05:49:02;102104.00;;;3.91;100.00
51229;BME280;37304;52.216;6.874;2023-04-08T05:54:03;102111.25;;;4.03;100.00
51229;BME280;37304;52.216;6.874;2023-04-08T05:59:04;102126.56;;;3.99;100.00
51229;BME280;37304;52.216;6.874;2023-04-08T06:04:04;102133.94;;;4.17;100.00
51229;BME280;37304;52.216;6.874;2023-04-08T06:09:05;102138.88;;;4.09;100.00
51229;BME280;37304;52.216;6.874;2023-04-08T06:14:05;102149.66;;;3.97;100.00
51229;BME280;37304;52.216;6.874;2023-04-08T06:19:06;102148.19;;;4.05;100.00
51229;BME280;37304;52.216;6.874;2023-04-08T06:24:07;102142.94;;;4.02;100.00
51229;BME280;37304;52.216;6.874;2023-04-08T06:29:08;102155.69;;;3.98;100.00
51229;BME280;37304;52.216;6.874;2023-04-08T06:34:15;102158.72;;;4.13;100.00
51229;BME280;37304;52.216;6.874;2023-04-08T06:39:15;102160.69;;;4.22;100.00
51229;BME280;37304;52.216;6.874;2023-04-08T06:44:27;102163.03;;;4.42;100.00
51229;BME280;37304;52.216;6.874;2023-04-08T06:49:31;102161.69;;;4.55;100.00
51229;BME280;37304;52.216;6.874;2023-04-08T06:54:31;102154.53;;;4.75;100.00
51229;BME280;37304;52.216;6.874;2023-04-08T06:59:41;102165.91;;;4.81;100.00
51229;BME280;37304;52.216;6.874;2023-04-08T07:04:41;102170.97;;;5.09;100.00
51229;BME280;37304;52.216;6.874;2023-04-08T07:09:45;102175.69;;;5.25;100.00
51229;BME280;37304;52.216;6.874;2023-04-08T07:14:45;102169.09;;;5.69;100.00
51229;BME280;37304;52.216;6.874;2023-04-08T07:19:46;102180.38;;;5.74;100.00
51229;BME280;37304;52.216;6.874;2023-04-08T07:24:47;102178.41;;;5.99;100.00
51229;BME280;37304;52.216;6.874;2023-04-08T07:29:52;102186.81;;;6.27;100.00
51229;BME280;37304;52.216;6.874;2023-04-08T07:34:53;102186.59;;;6.56;100.00
51229;BME280;37304;52.216;6.874;2023-04-08T07:39:54;102194.63;;;6.68;100.00
51229;BME280;37304;52.216;6.874;2023-04-08T07:44:54;102187.34;;;7.36;100.00
51229;BME280;37304;52.216;6.874;2023-04-08T07:49:56;102188.47;;;7.51;100.00
51229;BME280;37304;52.216;6.874;2023-04-08T07:54:56;102204.25;;;7.65;100.00
51229;BME280;37304;52.216;6.874;2023-04-08T07:59:57;102189.78;;;7.78;100.00
51229;BME280;37304;52.216;6.874;2023-04-08T08:05:00;102193.78;;;8.12;100.00
51229;BME280;37304;52.216;6.874;2023-04-08T08:10:00;102197.31;;;8.18;100.00
51229;BME280;37304;52.216;6.874;2023-04-08T08:15:01;102206.53;;;8.58;100.00
51229;BME280;37304;52.216;6.874;2023-04-08T08:20:03;102214.28;;;8.54;100.00
51229;BME280;37304;52.216;6.874;2023-04-08T08:25:05;102213.81;;;8.86;100.00
51229;BME280;37304;52.216;6.874;2023-04-08T08:30:08;102215.28;;;8.65;100.00
51229;BME280;37304;52.216;6.874;2023-04-08T08:35:08;102218.69;;;8.61;100.00
51229;BME280;37304;52.216;6.874;2023-04-08T08:40:09;102216.53;;;8.94;100.00
51229;BME280;37304;52.216;6.874;2023-04-08T08:45:10;102232.41;;;8.54;100.00
51229;BME280;37304;52.216;6.874;2023-04-08T08:50:10;102228.03;;;8.50;100.00
51229;BME280;37304;52.216;6.874;2023-04-08T08:55:11;102231.94;;;8.81;100.00
51229;BME280;37304;52.216;6.874;2023-04-08T09:00:11;102229.56;;;9.83;100.00
51229;BME280;37304;52.216;6.874;2023-04-08T09:05:15;102238.25;;;11.29;100.00
51229;BME280;37304;52.216;6.874;2023-04-08T09:10:27;102242.69;;;12.36;100.00
51229;BME280;37304;52.216;6.874;2023-04-08T09:15:27;102234.00;;;11.78;100.00
51229;BME280;37304;52.216;6.874;2023-04-08T09:20:28;102233.72;;;10.80;100.00
51229;BME280;37304;52.216;6.874;2023-04-08T09:25:30;102242.31;;;10.63;100.00
51229;BME280;37304;52.216;6.874;2023-04-08T09:30:31;102249.31;;;10.80;100.00
51229;BME280;37304;52.216;6.874;2023-04-08T09:35:32;102246.03;;;11.23;100.00
51229;BME280;37304;52.216;6.874;2023-04-08T09:40:33;102236.47;;;11.24;100.00
51229;BME280;37304;52.216;6.874;2023-04-08T09:45:40;102235.59;;;11.11;100.00
51229;BME280;37304;52.216;6.874;2023-04-08T09:50:47;102232.81;;;10.76;100.00
51229;BME280;37304;52.216;6.874;2023-04-08T09:55:50;102227.75;;;10.98;100.00
51229;BME280;37304;52.216;6.874;2023-04-08T10:00:53;102227.88;;;11.57;100.00
51229;BME280;37304;52.216;6.874;2023-04-08T10:05:54;102232.25;;;11.78;100.00
51229;BME280;37304;52.216;6.874;2023-04-08T10:10:57;102230.41;;;12.77;100.00
51229;BME280;37304;52.216;6.874;2023-04-08T10:21:33;102222.78;;;13.92;100.00
51229;BME280;37304;52.216;6.874;2023-04-08T10:26:37;102229.38;;;16.26;100.00
51229;BME280;37304;52.216;6.874;2023-04-08T10:31:39;102225.25;;;15.56;100.00
51229;BME280;37304;52.216;6.874;2023-04-08T10:36:39;102228.13;;;14.72;100.00
51229;BME280;37304;52.216;6.874;2023-04-08T10:41:48;102222.16;;;14.59;100.00
51229;BME280;37304;52.216;6.874;2023-04-08T10:46:49;102223.28;;;14.35;100.00
51229;BME280;37304;52.216;6.874;2023-04-08T10:51:50;102216.72;;;16.00;100.00
51229;BME280;37304;52.216;6.874;2023-04-08T10:56:51;102213.91;;;16.56;100.00
51229;BME280;37304;52.216;6.874;2023-04-08T11:01:52;102212.09;;;15.61;100.00
51229;BME280;37304;52.216;6.874;2023-04-08T11:06:54;102214.25;;;16.83;100.00
51229;BME280;37304;52.216;6.874;2023-04-08T11:11:55;102219.75;;;15.73;100.00
51229;BME280;37304;52.216;6.874;2023-04-08T11:16:56;102227.22;;;16.47;100.00
51229;BME280;37304;52.216;6.874;2023-04-08T11:21:59;102219.94;;;15.61;100.00
51229;BME280;37304;52.216;6.874;2023-04-08T11:27:03;102218.03;;;15.71;100.00
51229;BME280;37304;52.216;6.874;2023-04-08T11:32:27;102208.59;;;15.01;100.00
51229;BME280;37304;52.216;6.874;2023-04-08T11:37:46;102213.41;;;15.31;100.00
51229;BME280;37304;52.216;6.874;2023-04-08T11:42:49;102222.03;;;14.70;100.00
51229;BME280;37304;52.216;6.874;2023-04-08T11:47:51;102211.38;;;14.85;100.00
51229;BME280;37304;52.216;6.874;2023-04-08T11:52:52;102217.94;;;14.42;100.00
51229;BME280;37304;52.216;6.874;2023-04-08T11:57:53;102225.47;;;13.81;100.00
51229;BME280;37304;52.216;6.874;2023-04-08T12:02:54;102223.94;;;13.54;100.00
51229;BME280;37304;52.216;6.874;2023-04-08T12:07:55;102236.25;;;13.32;100.00
51229;BME280;37304;52.216;6.874;2023-04-08T12:12:55;102235.19;;;13.68;100.00
51229;BME280;37304;52.216;6.874;2023-04-08T12:17:59;102237.13;;;13.24;100.00
51229;BME280;37304;52.216;6.874;2023-04-08T12:22:59;102234.41;;;13.51;100.00
51229;BME280;37304;52.216;6.874;2023-04-08T12:28:00;102239.88;;;13.00;100.00
51229;BME280;37304;52.216;6.874;2023-04-08T12:33:00;102241.63;;;12.99;100.00
51229;BME280;37304;52.216;6.874;2023-04-08T12:38:01;102242.56;;;12.76;100.00
51229;BME280;37304;52.216;6.874;2023-04-08T12:43:01;102239.06;;;12.87;100.00
51229;BME280;37304;52.216;6.874;2023-04-08T12:48:02;102245.09;;;13.04;100.00
51229;BME280;37304;52.216;6.874;2023-04-08T12:53:03;102244.38;;;12.63;100.00
51229;BME280;37304;52.216;6.874;2023-04-08T12:58:03;102252.28;;;12.07;100.00
51229;BME280;37304;52.216;6.874;2023-04-08T13:03:04;102239.22;;;12.23;100.00
51229;BME280;37304;52.216;6.874;2023-04-08T13:08:05;102252.25;;;12.32;100.00
51229;BME280;37304;52.216;6.874;2023-04-08T13:13:05;102248.75;;;11.94;100.00
51229;BME280;37304;52.216;6.874;2023-04-08T13:18:06;102251.34;;;11.84;100.00
51229;BME280;37304;52.216;6.874;2023-04-08T13:23:11;102250.47;;;11.68;100.00
51229;BME280;37304;52.216;6.874;2023-04-08T13:28:18;102246.13;;;11.68;100.00
51229;BME280;37304;52.216;6.874;2023-04-08T13:33:19;102240.03;;;11.55;100.00
51229;BME280;37304;52.216;6.874;2023-04-08T13:38:19;102240.88;;;11.34;100.00
51229;BME280;37304;52.216;6.874;2023-04-08T13:43:20;102245.22;;;11.52;100.00
51229;BME280;37304;52.216;6.874;2023-04-08T13:48:21;102241.69;;;11.25;100.00
51229;BME280;37304;52.216;6.874;2023-04-08T13:53:22;102241.75;;;11.39;100.00
51229;BME280;37304;52.216;6.874;2023-04-08T13:58:22;102246.09;;;11.54;100.00
51229;BME280;37304;52.216;6.874;2023-04-08T14:03:22;102235.66;;;11.51;100.00
51229;BME280;37304;52.216;6.874;2023-04-08T14:08:23;102231.38;;;11.61;100.00
51229;BME280;37304;52.216;6.874;2023-04-08T14:13:26;102231.38;;;11.81;100.00
51229;BME280;37304;52.216;6.874;2023-04-08T14:18:27;102237.44;;;11.75;100.00
51229;BME280;37304;52.216;6.874;2023-04-08T14:23:28;102239.19;;;11.67;100.00
51229;BME280;37304;52.216;6.874;2023-04-08T14:28:29;102237.44;;;11.69;100.00
51229;BME280;37304;52.216;6.874;2023-04-08T14:33:29;102245.28;;;11.94;100.00
51229;BME280;37304;52.216;6.874;2023-04-08T14:38:31;102243.47;;;11.45;100.00
51229;BME280;37304;52.216;6.874;2023-04-08T14:43:31;102240.88;;;11.46;100.00
51229;BME280;37304;52.216;6.874;2023-04-08T14:48:32;102248.63;;;11.23;100.00
51229;BME280;37304;52.216;6.874;2023-04-08T14:53:32;102245.97;;;11.01;100.00
51229;BME280;37304;52.216;6.874;2023-04-08T14:58:33;102244.25;;;11.10;100.00
51229;BME280;37304;52.216;6.874;2023-04-08T15:03:33;102246.81;;;11.05;100.00
51229;BME280;37304;52.216;6.874;2023-04-08T15:08:33;102252.78;;;10.81;100.00
51229;BME280;37304;52.216;6.874;2023-04-08T15:13:34;102249.28;;;10.74;100.00
51229;BME280;37304;52.216;6.874;2023-04-08T15:18:35;102249.31;;;10.85;100.00
51229;BME280;37304;52.216;6.874;2023-04-08T15:23:36;102237.97;;;10.64;100.00
51229;BME280;37304;52.216;6.874;2023-04-08T15:28:41;102241.38;;;10.54;100.00
51229;BME280;37304;52.216;6.874;2023-04-08T15:33:41;102244.56;;;10.17;100.00
51229;BME280;37304;52.216;6.874;2023-04-08T15:38:45;102240.28;;;10.27;100.00
51229;BME280;37304;52.216;6.874;2023-04-08T15:43:46;102242.06;;;10.28;100.00
51229;BME280;37304;52.216;6.874;2023-04-08T15:48:52;102234.28;;;10.35;100.00
51229;BME280;37304;52.216;6.874;2023-04-08T15:53:55;102239.28;;;10.09;100.00
51229;BME280;37304;52.216;6.874;2023-04-08T15:58:56;102246.06;;;9.90;100.00
51229;BME280;37304;52.216;6.874;2023-04-08T16:03:57;102243.41;;;9.82;100.00
51229;BME280;37304;52.216;6.874;2023-04-08T16:08:59;102245.13;;;9.80;100.00
51229;BME280;37304;52.216;6.874;2023-04-08T16:14:00;102242.59;;;9.89;100.00
51229;BME280;37304;52.216;6.874;2023-04-08T16:19:00;102242.50;;;9.77;100.00
51229;BME280;37304;52.216;6.874;2023-04-08T16:24:02;102238.97;;;9.70;100.00
51229;BME280;37304;52.216;6.874;2023-04-08T16:29:07;102240.72;;;9.73;100.00
51229;BME280;37304;52.216;6.874;2023-04-08T16:34:11;102238.09;;;9.67;100.00
51229;BME280;37304;52.216;6.874;2023-04-08T16:39:17;102239.09;;;9.84;100.00
51229;BME280;37304;52.216;6.874;2023-04-08T16:44:24;102237.09;;;9.58;100.00
51229;BME280;37304;52.216;6.874;2023-04-08T16:49:27;102241.56;;;9.69;100.00
51229;BME280;37304;52.216;6.874;2023-04-08T16:54:39;102231.84;;;9.51;100.00
51229;BME280;37304;52.216;6.874;2023-04-08T16:59:39;102237.97;;;9.57;100.00
51229;BME280;37304;52.216;6.874;2023-04-08T17:04:41;102244.91;;;9.58;100.00
51229;BME280;37304;52.216;6.874;2023-04-08T17:09:41;102253.53;;;9.56;100.00
51229;BME280;37304;52.216;6.874;2023-04-08T17:14:49;102251.75;;;9.53;100.00
51229;BME280;37304;52.216;6.874;2023-04-08T17:19:52;102262.16;;;9.53;100.00
51229;BME280;37304;52.216;6.874;2023-04-08T17:24:53;102264.69;;;9.47;100.00
51229;BME280;37304;52.216;6.874;2023-04-08T17:29:54;102263.81;;;9.46;100.00
51229;BME280;37304;52.216;6.874;2023-04-08T17:34:56;102268.19;;;9.52;100.00
51229;BME280;37304;52.216;6.874;2023-04-08T17:39:57;102265.53;;;9.44;100.00
51229;BME280;37304;52.216;6.874;2023-04-08T17:44:57;102265.53;;;9.44;100.00
51229;BME280;37304;52.216;6.874;2023-04-08T17:49:58;102272.44;;;9.42;100.00
51229;BME280;37304;52.216;6.874;2023-04-08T17:54:59;102282.72;;;9.35;100.00
51229;BME280;37304;52.216;6.874;2023-04-08T17:59:59;102294.66;;;9.20;100.00
51229;BME280;37304;52.216;6.874;2023-04-08T18:05:00;102285.19;;;9.25;100.00
51229;BME280;37304;52.216;6.874;2023-04-08T18:10:02;102301.56;;;9.23;100.00
51229;BME280;37304;52.216;6.874;2023-04-08T18:15:03;102295.47;;;9.17;100.00
51229;BME280;37304;52.216;6.874;2023-04-08T18:20:03;102309.94;;;9.00;100.00
51229;BME280;37304;52.216;6.874;2023-04-08T18:25:05;102311.47;;;8.85;100.00
51229;BME280;37304;52.216;6.874;2023-04-08T18:30:06;102315.63;;;8.74;100.00
51229;BME280;37304;52.216;6.874;2023-04-08T18:35:07;102317.34;;;8.73;100.00
51229;BME280;37304;52.216;6.874;2023-04-08T18:40:08;102319.00;;;8.68;100.00
51229;BME280;37304;52.216;6.874;2023-04-08T18:45:08;102319.91;;;8.70;100.00
51229;BME280;37304;52.216;6.874;2023-04-08T18:50:12;102331.09;;;8.69;100.00
51229;BME280;37304;52.216;6.874;2023-04-08T18:55:15;102324.28;;;8.74;100.00
51229;BME280;37304;52.216;6.874;2023-04-08T19:00:48;102330.47;;;8.84;100.00
51229;BME280;37304;52.216;6.874;2023-04-08T19:05:41;102330.34;;;8.75;100.00
51229;BME280;37304;52.216;6.874;2023-04-08T19:10:45;102334.63;;;8.74;100.00
51229;BME280;37304;52.216;6.874;2023-04-08T19:15:51;102332.13;;;8.79;100.00
51229;BME280;37304;52.216;6.874;2023-04-08T19:21:01;102337.22;;;8.74;100.00
51229;BME280;37304;52.216;6.874;2023-04-08T19:26:05;102342.50;;;8.79;100.00
51229;BME280;37304;52.216;6.874;2023-04-08T19:31:12;102357.16;;;8.79;100.00
51229;BME280;37304;52.216;6.874;2023-04-08T19:36:13;102348.34;;;8.67;100.00
51229;BME280;37304;52.216;6.874;2023-04-08T19:41:13;102354.44;;;8.68;100.00
51229;BME280;37304;52.216;6.874;2023-04-08T19:46:14;102359.56;;;8.66;100.00
51229;BME280;37304;52.216;6.874;2023-04-08T19:51:18;102349.28;;;8.72;100.00
51229;BME280;37304;52.216;6.874;2023-04-08T19:56:21;102355.25;;;8.65;100.00
51229;BME280;37304;52.216;6.874;2023-04-08T20:01:22;102360.31;;;8.59;100.00
51229;BME280;37304;52.216;6.874;2023-04-08T20:06:23;102363.72;;;8.55;100.00
51229;BME280;37304;52.216;6.874;2023-04-08T20:11:23;102371.50;;;8.55;100.00
51229;BME280;37304;52.216;6.874;2023-04-08T20:16:23;102370.53;;;8.50;100.00
51229;BME280;37304;52.216;6.874;2023-04-08T20:21:24;102363.59;;;8.49;100.00
51229;BME280;37304;52.216;6.874;2023-04-08T20:26:25;102374.78;;;8.48;100.00
51229;BME280;37304;52.216;6.874;2023-04-08T20:31:25;102373.00;;;8.43;100.00
51229;BME280;37304;52.216;6.874;2023-04-08T20:36:26;102372.16;;;8.44;100.00
51229;BME280;37304;52.216;6.874;2023-04-08T20:41:27;102370.41;;;8.43;100.00
51229;BME280;37304;52.216;6.874;2023-04-08T20:46:27;102364.47;;;8.49;100.00
51229;BME280;37304;52.216;6.874;2023-04-08T20:51:28;102366.03;;;8.41;100.00
51229;BME280;37304;52.216;6.874;2023-04-08T20:56:29;102359.16;;;8.41;100.00
51229;BME280;37304;52.216;6.874;2023-04-08T21:01:29;102348.69;;;8.37;100.00
51229;BME280;37304;52.216;6.874;2023-04-08T21:06:38;102341.00;;;8.41;100.00
51229;BME280;37304;52.216;6.874;2023-04-08T21:11:41;102347.94;;;8.42;100.00
51229;BME280;37304;52.216;6.874;2023-04-08T21:16:42;102348.00;;;8.47;100.00
51229;BME280;37304;52.216;6.874;2023-04-08T21:21:44;102351.47;;;8.48;100.00
51229;BME280;37304;52.216;6.874;2023-04-08T21:26:45;102346.19;;;8.41;100.00
51229;BME280;37304;52.216;6.874;2023-04-08T21:31:45;102347.00;;;8.37;100.00
51229;BME280;37304;52.216;6.874;2023-04-08T21:36:46;102348.59;;;8.30;100.00
51229;BME280;37304;52.216;6.874;2023-04-08T21:41:46;102343.31;;;8.26;100.00
51229;BME280;37304;52.216;6.874;2023-04-08T21:46:47;102344.22;;;8.28;100.00
51229;BME280;37304;52.216;6.874;2023-04-08T21:51:59;102347.66;;;8.27;100.00
51229;BME280;37304;52.216;6.874;2023-04-08T21:57:00;102337.25;;;8.24;100.00
51229;BME280;37304;52.216;6.874;2023-04-08T22:02:00;102343.38;;;8.27;100.00
51229;BME280;37304;52.216;6.874;2023-04-08T22:07:02;102345.09;;;8.28;100.00
51229;BME280;37304;52.216;6.874;2023-04-08T22:12:03;102348.50;;;8.24;100.00
51229;BME280;37304;52.216;6.874;2023-04-08T22:17:09;102351.94;;;8.25;100.00
51229;BME280;37304;52.216;6.874;2023-04-08T22:22:13;102356.25;;;8.24;100.00
51229;BME280;37304;52.216;6.874;2023-04-08T22:27:13;102356.13;;;8.16;100.00
51229;BME280;37304;52.216;6.874;2023-04-08T22:32:13;102350.88;;;8.13;100.00
51229;BME280;37304;52.216;6.874;2023-04-08T22:37:14;102358.59;;;8.09;100.00
51229;BME280;37304;52.216;6.874;2023-04-08T22:42:15;102349.88;;;8.04;100.00
51229;BME280;37304;52.216;6.874;2023-04-08T22:47:17;102351.59;;;8.05;100.00
51229;BME280;37304;52.216;6.874;2023-04-08T22:52:18;102349.03;;;8.05;100.00
51229;BME280;37304;52.216;6.874;2023-04-08T22:57:18;102350.59;;;7.98;100.00
51229;BME280;37304;52.216;6.874;2023-04-08T23:02:18;102354.16;;;8.01;100.00
51229;BME280;37304;52.216;6.874;2023-04-08T23:07:19;102350.59;;;7.96;100.00
51229;BME280;37304;52.216;6.874;2023-04-08T23:12:19;102348.06;;;7.99;100.00
51229;BME280;37304;52.216;6.874;2023-04-08T23:17:19;102354.00;;;7.94;100.00
51229;BME280;37304;52.216;6.874;2023-04-08T23:22:20;102363.50;;;7.95;100.00
51229;BME280;37304;52.216;6.874;2023-04-08T23:27:20;102353.16;;;7.95;100.00
51229;BME280;37304;52.216;6.874;2023-04-08T23:32:21;102353.88;;;7.87;100.00
51229;BME280;37304;52.216;6.874;2023-04-08T23:37:21;102340.88;;;7.86;100.00
51229;BME280;37304;52.216;6.874;2023-04-08T23:42:23;102356.41;;;7.86;100.00
51229;BME280;37304;52.216;6.874;2023-04-08T23:47:35;102353.00;;;7.87;100.00
51229;BME280;37304;52.216;6.874;2023-04-08T23:52:35;102348.78;;;7.92;100.00
51229;BME280;37304;52.216;6.874;2023-04-08T23:57:36;102343.53;;;7.87;100.00
